sensor_id;sensor_type;location;lat;lon;timestamp;P1;durP1;ratioP1;P2;durP2;ratioP2
8584;SDS011;7180;52.742;11.420;2023-01-09T00:00:13;14.43;;;13.43;;
8584;SDS011;7180;52.742;11.420;2023-01-09T00:02:40;15.17;;;14.07;;
8584;SDS011;7180;52.742;11.420;2023-01-09T00:05:09;15.10;;;14.00;;
8584;SDS011;7180;52.742;11.420;2023-01-09T00:07:35;14.67;;;13.67;;
8584;SDS011;7180;52.742;11.420;2023-01-09T00:10:00;15.40;;;14.40;;
8584;SDS011;7180;52.742;11.420;2023-01-09T00:12:25;14.60;;;13.60;;
8584;SDS011;7180;52.742;11.420;2023-01-09T00:14:51;14.77;;;13.67;;
8584;SDS011;7180;52.742;11.420;2023-01-09T00:17:16;14.17;;;13.27;;
8584;SDS011;7180;52.742;11.420;2023-01-09T00:19:41;14.47;;;13.57;;
8584;SDS011;7180;52.742;11.420;2023-01-09T00:22:06;14.63;;;13.63;;
8584;SDS011;7180;52.742;11.420;2023-01-09T00:24:33;15.80;;;14.70;;
8584;SDS011;7180;52.742;11.420;2023-01-09T00:27:01;15.13;;;14.13;;
8584;SDS011;7180;52.742;11.420;2023-01-09T00:29:27;15.53;;;14.43;;
8584;SDS011;7180;52.742;11.420;2023-01-09T00:31:52;15.10;;;14.10;;
8584;SDS011;7180;52.742;11.420;2023-01-09T00:34:17;15.00;;;14.00;;
8584;SDS011;7180;52.742;11.420;2023-01-09T00:36:43;14.17;;;13.07;;
8584;SDS011;7180;52.742;11.420;2023-01-09T00:39:08;15.27;;;14.20;;
8584;SDS011;7180;52.742;11.420;2023-01-09T00:41:47;14.33;;;13.23;;
8584;SDS011;7180;52.742;11.420;2023-01-09T00:44:17;14.63;;;13.57;;
8584;SDS011;7180;52.742;11.420;2023-01-09T00:46:47;14.70;;;13.70;;
8584;SDS011;7180;52.742;11.420;2023-01-09T00:49:17;14.63;;;13.63;;
8584;SDS011;7180;52.742;11.420;2023-01-09T00:51:43;15.00;;;14.00;;
8584;SDS011;7180;52.742;11.420;2023-01-09T00:54:12;15.30;;;14.30;;
8584;SDS011;7180;52.742;11.420;2023-01-09T00:56:39;16.10;;;14.83;;
8584;SDS011;7180;52.742;11.420;2023-01-09T00:59:05;15.03;;;13.87;;
8584;SDS011;7180;52.742;11.420;2023-01-09T01:01:31;15.87;;;14.47;;
8584;SDS011;7180;52.742;11.420;2023-01-09T01:03:56;15.80;;;14.63;;
8584;SDS011;7180;52.742;11.420;2023-01-09T01:06:21;15.63;;;14.43;;
8584;SDS011;7180;52.742;11.420;2023-01-09T01:09:05;15.10;;;14.00;;
8584;SDS011;7180;52.742;11.420;2023-01-09T01:11:31;15.03;;;14.03;;
8584;SDS011;7180;52.742;11.420;2023-01-09T01:13:57;15.50;;;14.40;;
8584;SDS011;7180;52.742;11.420;2023-01-09T01:16:22;15.10;;;14.00;;
8584;SDS011;7180;52.742;11.420;2023-01-09T01:18:47;15.13;;;14.13;;
8584;SDS011;7180;52.742;11.420;2023-01-09T01:21:13;15.67;;;14.47;;
8584;SDS011;7180;52.742;11.420;2023-01-09T01:23:39;15.37;;;14.30;;
8584;SDS011;7180;52.742;11.420;2023-01-09T01:26:05;16.03;;;14.83;;
8584;SDS011;7180;52.742;11.420;2023-01-09T01:28:40;15.20;;;14.20;;
8584;SDS011;7180;52.742;11.420;2023-01-09T01:31:07;15.37;;;14.23;;
8584;SDS011;7180;52.742;11.420;2023-01-09T01:33:32;15.77;;;14.57;;
8584;SDS011;7180;52.742;11.420;2023-01-09T01:36:02;15.43;;;14.33;;
8584;SDS011;7180;52.742;11.420;2023-01-09T01:38:30;16.07;;;14.87;;
8584;SDS011;7180;52.742;11.420;2023-01-09T01:40:55;15.73;;;14.63;;
8584;SDS011;7180;52.742;11.420;2023-01-09T01:43:21;15.07;;;14.00;;
8584;SDS011;7180;52.742;11.420;2023-01-09T01:45:46;15.67;;;14.47;;
8584;SDS011;7180;52.742;11.420;2023-01-09T01:48:13;16.57;;;15.23;;
8584;SDS011;7180;52.742;11.420;2023-01-09T01:50:49;18.17;;;16.67;;
8584;SDS011;7180;52.742;11.420;2023-01-09T01:56:09;15.93;;;14.83;;
8584;SDS011;7180;52.742;11.420;2023-01-09T01:58:47;15.87;;;14.60;;
8584;SDS011;7180;52.742;11.420;2023-01-09T02:01:15;16.57;;;15.23;;
8584;SDS011;7180;52.742;11.420;2023-01-09T02:03:42;16.20;;;15.00;;
8584;SDS011;7180;52.742;11.420;2023-01-09T02:06:09;16.00;;;14.90;;
8584;SDS011;7180;52.742;11.420;2023-01-09T02:08:35;17.00;;;15.80;;
8584;SDS011;7180;52.742;11.420;2023-01-09T02:11:01;17.13;;;15.93;;
8584;SDS011;7180;52.742;11.420;2023-01-09T02:13:28;16.07;;;14.83;;
8584;SDS011;7180;52.742;11.420;2023-01-09T02:29:29;16.70;;;15.50;;
8584;SDS011;7180;52.742;11.420;2023-01-09T02:32:16;16.53;;;15.40;;
8584;SDS011;7180;52.742;11.420;2023-01-09T02:34:53;15.60;;;14.50;;
8584;SDS011;7180;52.742;11.420;2023-01-09T02:37:42;15.77;;;14.57;;
8584;SDS011;7180;52.742;11.420;2023-01-09T02:40:24;16.27;;;15.17;;
8584;SDS011;7180;52.742;11.420;2023-01-09T02:42:53;16.00;;;14.80;;
8584;SDS011;7180;52.742;11.420;2023-01-09T02:45:21;15.60;;;14.50;;
8584;SDS011;7180;52.742;11.420;2023-01-09T02:47:46;15.97;;;14.77;;
8584;SDS011;7180;52.742;11.420;2023-01-09T02:50:14;16.47;;;15.37;;
8584;SDS011;7180;52.742;11.420;2023-01-09T02:55:57;15.90;;;14.80;;
8584;SDS011;7180;52.742;11.420;2023-01-09T03:03:57;16.03;;;14.93;;
8584;SDS011;7180;52.742;11.420;2023-01-09T03:09:04;16.27;;;15.10;;
8584;SDS011;7180;52.742;11.420;2023-01-09T03:11:35;17.13;;;15.93;;
8584;SDS011;7180;52.742;11.420;2023-01-09T03:14:08;16.23;;;15.03;;
8584;SDS011;7180;52.742;11.420;2023-01-09T03:16:37;15.43;;;14.33;;
8584;SDS011;7180;52.742;11.420;2023-01-09T03:19:04;16.23;;;15.13;;
8584;SDS011;7180;52.742;11.420;2023-01-09T03:21:33;16.80;;;15.53;;
8584;SDS011;7180;52.742;11.420;2023-01-09T03:24:00;16.83;;;15.60;;
8584;SDS011;7180;52.742;11.420;2023-01-09T03:26:26;16.90;;;15.50;;
8584;SDS011;7180;52.742;11.420;2023-01-09T03:28:56;17.27;;;15.77;;
8584;SDS011;7180;52.742;11.420;2023-01-09T03:31:22;16.40;;;15.10;;
8584;SDS011;7180;52.742;11.420;2023-01-09T03:33:48;16.63;;;15.43;;
8584;SDS011;7180;52.742;11.420;2023-01-09T03:36:14;16.53;;;15.33;;
8584;SDS011;7180;52.742;11.420;2023-01-09T03:38:40;16.67;;;15.53;;
8584;SDS011;7180;52.742;11.420;2023-01-09T03:41:06;16.97;;;15.73;;
8584;SDS011;7180;52.742;11.420;2023-01-09T03:43:31;17.07;;;15.67;;
8584;SDS011;7180;52.742;11.420;2023-01-09T03:45:57;16.90;;;15.70;;
8584;SDS011;7180;52.742;11.420;2023-01-09T03:48:23;16.63;;;15.43;;
8584;SDS011;7180;52.742;11.420;2023-01-09T03:50:49;16.73;;;15.53;;
8584;SDS011;7180;52.742;11.420;2023-01-09T03:53:17;17.13;;;15.70;;
8584;SDS011;7180;52.742;11.420;2023-01-09T03:55:45;17.00;;;15.70;;
8584;SDS011;7180;52.742;11.420;2023-01-09T03:58:11;16.90;;;15.70;;
8584;SDS011;7180;52.742;11.420;2023-01-09T04:00:37;17.77;;;16.47;;
8584;SDS011;7180;52.742;11.420;2023-01-09T04:03:04;17.20;;;15.90;;
8584;SDS011;7180;52.742;11.420;2023-01-09T04:05:29;17.07;;;15.77;;
8584;SDS011;7180;52.742;11.420;2023-01-09T04:07:54;17.20;;;15.87;;
8584;SDS011;7180;52.742;11.420;2023-01-09T04:10:20;18.00;;;16.40;;
8584;SDS011;7180;52.742;11.420;2023-01-09T04:12:45;16.77;;;15.47;;
8584;SDS011;7180;52.742;11.420;2023-01-09T04:15:10;17.37;;;16.07;;
8584;SDS011;7180;52.742;11.420;2023-01-09T04:17:35;17.40;;;16.00;;
8584;SDS011;7180;52.742;11.420;2023-01-09T04:20:00;17.37;;;16.07;;
8584;SDS011;7180;52.742;11.420;2023-01-09T04:22:26;17.60;;;16.20;;
8584;SDS011;7180;52.742;11.420;2023-01-09T04:24:51;17.93;;;16.53;;
8584;SDS011;7180;52.742;11.420;2023-01-09T04:27:17;17.93;;;16.63;;
8584;SDS011;7180;52.742;11.420;2023-01-09T04:29:43;18.63;;;17.20;;
8584;SDS011;7180;52.742;11.420;2023-01-09T04:32:08;17.53;;;16.23;;
8584;SDS011;7180;52.742;11.420;2023-01-09T04:34:33;18.37;;;16.87;;
8584;SDS011;7180;52.742;11.420;2023-01-09T04:36:58;18.50;;;17.10;;
8584;SDS011;7180;52.742;11.420;2023-01-09T04:39:24;18.23;;;16.73;;
8584;SDS011;7180;52.742;11.420;2023-01-09T04:41:49;18.87;;;17.33;;
8584;SDS011;7180;52.742;11.420;2023-01-09T04:44:15;19.10;;;17.50;;
8584;SDS011;7180;52.742;11.420;2023-01-09T04:46:42;19.33;;;17.73;;
8584;SDS011;7180;52.742;11.420;2023-01-09T04:49:07;20.57;;;18.77;;
8584;SDS011;7180;52.742;11.420;2023-01-09T04:51:32;19.90;;;18.20;;
8584;SDS011;7180;52.742;11.420;2023-01-09T04:53:58;19.37;;;17.77;;
8584;SDS011;7180;52.742;11.420;2023-01-09T04:56:23;19.33;;;17.63;;
8584;SDS011;7180;52.742;11.420;2023-01-09T04:58:48;19.47;;;17.77;;
8584;SDS011;7180;52.742;11.420;2023-01-09T05:01:13;19.70;;;18.00;;
8584;SDS011;7180;52.742;11.420;2023-01-09T05:03:39;19.13;;;17.50;;
8584;SDS011;7180;52.742;11.420;2023-01-09T05:06:04;19.53;;;17.83;;
8584;SDS011;7180;52.742;11.420;2023-01-09T05:08:29;19.77;;;18.13;;
8584;SDS011;7180;52.742;11.420;2023-01-09T05:10:55;21.13;;;19.23;;
8584;SDS011;7180;52.742;11.420;2023-01-09T05:13:20;21.47;;;19.50;;
8584;SDS011;7180;52.742;11.420;2023-01-09T05:15:45;20.63;;;18.73;;
8584;SDS011;7180;52.742;11.420;2023-01-09T05:18:10;20.70;;;18.90;;
8584;SDS011;7180;52.742;11.420;2023-01-09T05:20:36;20.03;;;18.37;;
8584;SDS011;7180;52.742;11.420;2023-01-09T05:23:01;20.93;;;19.13;;
8584;SDS011;7180;52.742;11.420;2023-01-09T05:25:26;20.63;;;18.70;;
8584;SDS011;7180;52.742;11.420;2023-01-09T05:27:51;21.80;;;19.80;;
8584;SDS011;7180;52.742;11.420;2023-01-09T05:30:17;21.20;;;19.30;;
8584;SDS011;7180;52.742;11.420;2023-01-09T05:32:43;21.00;;;19.10;;
8584;SDS011;7180;52.742;11.420;2023-01-09T05:35:08;22.87;;;20.57;;
8584;SDS011;7180;52.742;11.420;2023-01-09T05:37:34;22.83;;;20.73;;
8584;SDS011;7180;52.742;11.420;2023-01-09T05:39:59;22.47;;;20.27;;
8584;SDS011;7180;52.742;11.420;2023-01-09T05:42:24;23.07;;;20.77;;
8584;SDS011;7180;52.742;11.420;2023-01-09T05:44:49;21.90;;;19.90;;
8584;SDS011;7180;52.742;11.420;2023-01-09T05:47:15;23.23;;;20.93;;
8584;SDS011;7180;52.742;11.420;2023-01-09T05:49:40;24.20;;;21.70;;
8584;SDS011;7180;52.742;11.420;2023-01-09T05:52:05;24.60;;;22.10;;
8584;SDS011;7180;52.742;11.420;2023-01-09T05:54:32;25.30;;;22.70;;
8584;SDS011;7180;52.742;11.420;2023-01-09T05:56:58;25.00;;;22.30;;
8584;SDS011;7180;52.742;11.420;2023-01-09T05:59:23;23.93;;;21.47;;
8584;SDS011;7180;52.742;11.420;2023-01-09T06:01:48;23.40;;;21.10;;
8584;SDS011;7180;52.742;11.420;2023-01-09T06:04:14;25.33;;;22.83;;
8584;SDS011;7180;52.742;11.420;2023-01-09T06:06:39;24.13;;;21.57;;
8584;SDS011;7180;52.742;11.420;2023-01-09T06:09:05;24.17;;;21.73;;
8584;SDS011;7180;52.742;11.420;2023-01-09T06:11:31;24.90;;;22.40;;
8584;SDS011;7180;52.742;11.420;2023-01-09T06:13:58;25.13;;;22.63;;
8584;SDS011;7180;52.742;11.420;2023-01-09T06:16:23;23.90;;;21.53;;
8584;SDS011;7180;52.742;11.420;2023-01-09T06:18:48;23.50;;;21.20;;
8584;SDS011;7180;52.742;11.420;2023-01-09T06:21:14;23.27;;;21.00;;
8584;SDS011;7180;52.742;11.420;2023-01-09T06:23:39;23.83;;;21.33;;
8584;SDS011;7180;52.742;11.420;2023-01-09T06:26:05;23.93;;;21.53;;
8584;SDS011;7180;52.742;11.420;2023-01-09T06:28:30;23.27;;;20.90;;
8584;SDS011;7180;52.742;11.420;2023-01-09T06:30:55;23.07;;;20.77;;
8584;SDS011;7180;52.742;11.420;2023-01-09T06:33:20;25.00;;;22.40;;
8584;SDS011;7180;52.742;11.420;2023-01-09T06:35:46;23.33;;;20.93;;
8584;SDS011;7180;52.742;11.420;2023-01-09T06:38:11;24.00;;;21.40;;
8584;SDS011;7180;52.742;11.420;2023-01-09T06:40:36;24.13;;;21.67;;
8584;SDS011;7180;52.742;11.420;2023-01-09T06:43:02;24.97;;;22.30;;
8584;SDS011;7180;52.742;11.420;2023-01-09T06:45:27;25.00;;;22.33;;
8584;SDS011;7180;52.742;11.420;2023-01-09T06:47:52;24.43;;;21.93;;
8584;SDS011;7180;52.742;11.420;2023-01-09T06:50:18;25.10;;;22.43;;
8584;SDS011;7180;52.742;11.420;2023-01-09T06:52:43;24.13;;;21.53;;
8584;SDS011;7180;52.742;11.420;2023-01-09T06:55:08;25.90;;;22.47;;
8584;SDS011;7180;52.742;11.420;2023-01-09T06:57:33;26.50;;;23.07;;
8584;SDS011;7180;52.742;11.420;2023-01-09T06:59:59;25.73;;;22.40;;
8584;SDS011;7180;52.742;11.420;2023-01-09T07:02:24;25.50;;;22.77;;
8584;SDS011;7180;52.742;11.420;2023-01-09T07:04:50;26.73;;;22.70;;
8584;SDS011;7180;52.742;11.420;2023-01-09T07:07:15;25.07;;;22.37;;
8584;SDS011;7180;52.742;11.420;2023-01-09T07:09:40;25.53;;;22.80;;
8584;SDS011;7180;52.742;11.420;2023-01-09T07:12:05;25.87;;;22.13;;
8584;SDS011;7180;52.742;11.420;2023-01-09T07:14:31;25.97;;;23.17;;
8584;SDS011;7180;52.742;11.420;2023-01-09T07:16:57;25.53;;;22.70;;
8584;SDS011;7180;52.742;11.420;2023-01-09T07:19:22;25.80;;;22.10;;
8584;SDS011;7180;52.742;11.420;2023-01-09T07:21:48;24.30;;;21.80;;
8584;SDS011;7180;52.742;11.420;2023-01-09T07:24:13;26.10;;;21.87;;
8584;SDS011;7180;52.742;11.420;2023-01-09T07:26:38;24.07;;;21.50;;
8584;SDS011;7180;52.742;11.420;2023-01-09T07:29:04;23.40;;;21.07;;
8584;SDS011;7180;52.742;11.420;2023-01-09T07:31:29;23.80;;;21.27;;
8584;SDS011;7180;52.742;11.420;2023-01-09T07:33:54;22.87;;;20.47;;
8584;SDS011;7180;52.742;11.420;2023-01-09T07:36:20;22.53;;;20.33;;
8584;SDS011;7180;52.742;11.420;2023-01-09T07:38:45;22.37;;;19.97;;
8584;SDS011;7180;52.742;11.420;2023-01-09T07:41:10;22.20;;;19.93;;
8584;SDS011;7180;52.742;11.420;2023-01-09T07:43:36;22.07;;;19.77;;
8584;SDS011;7180;52.742;11.420;2023-01-09T07:46:02;20.30;;;18.23;;
8584;SDS011;7180;52.742;11.420;2023-01-09T07:48:28;19.83;;;17.83;;
8584;SDS011;7180;52.742;11.420;2023-01-09T07:50:53;19.63;;;17.80;;
8584;SDS011;7180;52.742;11.420;2023-01-09T07:53:18;18.60;;;17.00;;
8584;SDS011;7180;52.742;11.420;2023-01-09T07:55:43;19.10;;;17.40;;
8584;SDS011;7180;52.742;11.420;2023-01-09T07:58:09;18.10;;;16.50;;
8584;SDS011;7180;52.742;11.420;2023-01-09T08:00:34;17.13;;;15.60;;
8584;SDS011;7180;52.742;11.420;2023-01-09T08:02:59;17.20;;;15.70;;
8584;SDS011;7180;52.742;11.420;2023-01-09T08:05:25;17.20;;;15.60;;
8584;SDS011;7180;52.742;11.420;2023-01-09T08:07:50;17.80;;;16.27;;
8584;SDS011;7180;52.742;11.420;2023-01-09T08:10:16;18.07;;;16.37;;
8584;SDS011;7180;52.742;11.420;2023-01-09T08:12:43;17.27;;;15.77;;
8584;SDS011;7180;52.742;11.420;2023-01-09T08:15:09;17.57;;;16.13;;
8584;SDS011;7180;52.742;11.420;2023-01-09T08:17:35;19.23;;;17.53;;
8584;SDS011;7180;52.742;11.420;2023-01-09T08:20:00;17.23;;;15.80;;
8584;SDS011;7180;52.742;11.420;2023-01-09T08:22:26;18.07;;;16.47;;
8584;SDS011;7180;52.742;11.420;2023-01-09T08:24:51;17.10;;;15.70;;
8584;SDS011;7180;52.742;11.420;2023-01-09T08:27:16;15.90;;;14.60;;
8584;SDS011;7180;52.742;11.420;2023-01-09T08:29:41;16.07;;;14.77;;
8584;SDS011;7180;52.742;11.420;2023-01-09T08:32:07;15.10;;;13.90;;
8584;SDS011;7180;52.742;11.420;2023-01-09T08:34:32;15.07;;;13.97;;
8584;SDS011;7180;52.742;11.420;2023-01-09T08:36:58;15.70;;;14.47;;
8584;SDS011;7180;52.742;11.420;2023-01-09T08:39:24;14.60;;;13.50;;
8584;SDS011;7180;52.742;11.420;2023-01-09T08:41:49;14.90;;;13.70;;
8584;SDS011;7180;52.742;11.420;2023-01-09T08:44:33;14.23;;;13.23;;
8584;SDS011;7180;52.742;11.420;2023-01-09T08:47:17;14.03;;;13.03;;
8584;SDS011;7180;52.742;11.420;2023-01-09T08:49:45;14.23;;;13.07;;
8584;SDS011;7180;52.742;11.420;2023-01-09T08:52:11;14.30;;;13.10;;
8584;SDS011;7180;52.742;11.420;2023-01-09T08:54:37;13.47;;;12.57;;
8584;SDS011;7180;52.742;11.420;2023-01-09T08:57:04;13.83;;;12.83;;
8584;SDS011;7180;52.742;11.420;2023-01-09T08:59:29;13.07;;;12.17;;
8584;SDS011;7180;52.742;11.420;2023-01-09T09:01:55;12.97;;;12.07;;
8584;SDS011;7180;52.742;11.420;2023-01-09T09:04:20;13.20;;;12.40;;
8584;SDS011;7180;52.742;11.420;2023-01-09T09:06:45;12.70;;;11.80;;
8584;SDS011;7180;52.742;11.420;2023-01-09T09:09:11;12.47;;;11.57;;
8584;SDS011;7180;52.742;11.420;2023-01-09T09:11:36;12.67;;;11.77;;
8584;SDS011;7180;52.742;11.420;2023-01-09T09:14:01;11.90;;;11.20;;
8584;SDS011;7180;52.742;11.420;2023-01-09T09:16:49;12.40;;;11.50;;
8584;SDS011;7180;52.742;11.420;2023-01-09T09:19:15;12.30;;;11.50;;
8584;SDS011;7180;52.742;11.420;2023-01-09T09:21:40;11.70;;;11.00;;
8584;SDS011;7180;52.742;11.420;2023-01-09T09:24:05;10.90;;;10.20;;
8584;SDS011;7180;52.742;11.420;2023-01-09T09:26:31;11.57;;;10.80;;
8584;SDS011;7180;52.742;11.420;2023-01-09T09:28:57;10.80;;;10.10;;
8584;SDS011;7180;52.742;11.420;2023-01-09T09:31:22;10.80;;;10.00;;
8584;SDS011;7180;52.742;11.420;2023-01-09T09:33:48;10.43;;;9.63;;
8584;SDS011;7180;52.742;11.420;2023-01-09T09:36:13;10.60;;;9.80;;
8584;SDS011;7180;52.742;11.420;2023-01-09T09:38:38;11.13;;;10.13;;
8584;SDS011;7180;52.742;11.420;2023-01-09T09:55:23;10.77;;;9.93;;
8584;SDS011;7180;52.742;11.420;2023-01-09T09:57:51;10.77;;;9.97;;
8584;SDS011;7180;52.742;11.420;2023-01-09T10:00:17;10.80;;;9.83;;
8584;SDS011;7180;52.742;11.420;2023-01-09T10:02:46;11.07;;;9.97;;
8584;SDS011;7180;52.742;11.420;2023-01-09T10:05:22;10.73;;;10.10;;
8584;SDS011;7180;52.742;11.420;2023-01-09T10:07:52;11.20;;;10.40;;
8584;SDS011;7180;52.742;11.420;2023-01-09T10:10:37;11.30;;;10.50;;
8584;SDS011;7180;52.742;11.420;2023-01-09T10:13:07;12.20;;;11.30;;
8584;SDS011;7180;52.742;11.420;2023-01-09T10:19:33;11.80;;;10.90;;
8584;SDS011;7180;52.742;11.420;2023-01-09T10:22:25;12.50;;;11.43;;
8584;SDS011;7180;52.742;11.420;2023-01-09T10:25:34;12.37;;;11.47;;
8584;SDS011;7180;52.742;11.420;2023-01-09T10:31:11;12.67;;;11.73;;
8584;SDS011;7180;52.742;11.420;2023-01-09T10:34:04;13.97;;;13.03;;
8584;SDS011;7180;52.742;11.420;2023-01-09T10:36:56;15.13;;;14.03;;
8584;SDS011;7180;52.742;11.420;2023-01-09T10:39:51;14.87;;;13.77;;
8584;SDS011;7180;52.742;11.420;2023-01-09T10:42:27;16.03;;;14.73;;
8584;SDS011;7180;52.742;11.420;2023-01-09T10:47:55;14.37;;;13.27;;
8584;SDS011;7180;52.742;11.420;2023-01-09T10:50:27;14.17;;;12.97;;
8584;SDS011;7180;52.742;11.420;2023-01-09T10:52:56;13.93;;;12.67;;
8584;SDS011;7180;52.742;11.420;2023-01-09T10:58:11;13.57;;;12.57;;
8584;SDS011;7180;52.742;11.420;2023-01-09T11:00:39;13.50;;;12.40;;
8584;SDS011;7180;52.742;11.420;2023-01-09T11:03:05;13.63;;;12.60;;
8584;SDS011;7180;52.742;11.420;2023-01-09T11:05:34;13.70;;;12.30;;
8584;SDS011;7180;52.742;11.420;2023-01-09T11:08:03;14.37;;;13.00;;
8584;SDS011;7180;52.742;11.420;2023-01-09T11:10:48;14.10;;;13.00;;
8584;SDS011;7180;52.742;11.420;2023-01-09T11:13:25;14.00;;;12.90;;
8584;SDS011;7180;52.742;11.420;2023-01-09T11:18:48;12.93;;;11.93;;
8584;SDS011;7180;52.742;11.420;2023-01-09T11:23:54;12.80;;;11.63;;
8584;SDS011;7180;52.742;11.420;2023-01-09T11:26:21;12.97;;;11.80;;
8584;SDS011;7180;52.742;11.420;2023-01-09T11:29:04;12.43;;;11.53;;
8584;SDS011;7180;52.742;11.420;2023-01-09T11:31:40;11.60;;;10.90;;
8584;SDS011;7180;52.742;11.420;2023-01-09T11:37:11;12.13;;;11.13;;
8584;SDS011;7180;52.742;11.420;2023-01-09T11:39:43;12.00;;;11.07;;
8584;SDS011;7180;52.742;11.420;2023-01-09T11:42:18;11.60;;;10.80;;
8584;SDS011;7180;52.742;11.420;2023-01-09T11:45:18;11.80;;;10.90;;
8584;SDS011;7180;52.742;11.420;2023-01-09T11:47:51;11.53;;;10.70;;
8584;SDS011;7180;52.742;11.420;2023-01-09T11:50:21;11.57;;;10.87;;
8584;SDS011;7180;52.742;11.420;2023-01-09T11:55:38;10.63;;;9.93;;
8584;SDS011;7180;52.742;11.420;2023-01-09T11:58:03;11.20;;;10.50;;
8584;SDS011;7180;52.742;11.420;2023-01-09T12:00:29;11.17;;;10.30;;
8584;SDS011;7180;52.742;11.420;2023-01-09T12:06:11;11.00;;;10.30;;
8584;SDS011;7180;52.742;11.420;2023-01-09T12:08:57;11.23;;;10.43;;
8584;SDS011;7180;52.742;11.420;2023-01-09T12:22:15;10.80;;;10.10;;
8584;SDS011;7180;52.742;11.420;2023-01-09T12:27:47;10.47;;;9.87;;
8584;SDS011;7180;52.742;11.420;2023-01-09T12:30:27;10.20;;;9.50;;
8584;SDS011;7180;52.742;11.420;2023-01-09T12:38:39;9.80;;;9.30;;
8584;SDS011;7180;52.742;11.420;2023-01-09T12:41:28;10.50;;;9.90;;
8584;SDS011;7180;52.742;11.420;2023-01-09T12:44:26;10.57;;;9.97;;
8584;SDS011;7180;52.742;11.420;2023-01-09T12:57:32;9.47;;;8.87;;
8584;SDS011;7180;52.742;11.420;2023-01-09T13:02:52;9.90;;;9.20;;
8584;SDS011;7180;52.742;11.420;2023-01-09T13:05:29;10.00;;;9.13;;
8584;SDS011;7180;52.742;11.420;2023-01-09T13:08:35;9.30;;;8.60;;
8584;SDS011;7180;52.742;11.420;2023-01-09T13:11:22;9.33;;;8.83;;
8584;SDS011;7180;52.742;11.420;2023-01-09T13:14:02;9.10;;;8.70;;
8584;SDS011;7180;52.742;11.420;2023-01-09T13:16:45;9.37;;;8.77;;
8584;SDS011;7180;52.742;11.420;2023-01-09T13:21:44;9.73;;;9.03;;
8584;SDS011;7180;52.742;11.420;2023-01-09T13:24:21;10.50;;;9.60;;
8584;SDS011;7180;52.742;11.420;2023-01-09T13:27:12;9.07;;;8.67;;
8584;SDS011;7180;52.742;11.420;2023-01-09T13:29:42;10.17;;;9.57;;
8584;SDS011;7180;52.742;11.420;2023-01-09T13:34:46;9.53;;;9.03;;
8584;SDS011;7180;52.742;11.420;2023-01-09T13:37:23;9.33;;;8.73;;
8584;SDS011;7180;52.742;11.420;2023-01-09T13:40:04;9.20;;;8.70;;
8584;SDS011;7180;52.742;11.420;2023-01-09T13:42:42;9.40;;;8.80;;
8584;SDS011;7180;52.742;11.420;2023-01-09T13:47:41;8.60;;;8.10;;
8584;SDS011;7180;52.742;11.420;2023-01-09T13:52:39;9.00;;;8.50;;
8584;SDS011;7180;52.742;11.420;2023-01-09T14:08:13;9.07;;;8.43;;
8584;SDS011;7180;52.742;11.420;2023-01-09T14:13:07;9.53;;;9.03;;
8584;SDS011;7180;52.742;11.420;2023-01-09T14:15:40;9.10;;;8.60;;
8584;SDS011;7180;52.742;11.420;2023-01-09T14:23:34;9.90;;;9.30;;
8584;SDS011;7180;52.742;11.420;2023-01-09T14:26:14;10.90;;;9.77;;
8584;SDS011;7180;52.742;11.420;2023-01-09T14:28:42;9.57;;;8.97;;
8584;SDS011;7180;52.742;11.420;2023-01-09T14:31:08;9.83;;;9.33;;
8584;SDS011;7180;52.742;11.420;2023-01-09T14:33:34;10.23;;;9.67;;
8584;SDS011;7180;52.742;11.420;2023-01-09T14:36:18;9.80;;;9.23;;
8584;SDS011;7180;52.742;11.420;2023-01-09T14:38:53;9.70;;;9.10;;
8584;SDS011;7180;52.742;11.420;2023-01-09T14:52:53;9.60;;;9.10;;
8584;SDS011;7180;52.742;11.420;2023-01-09T14:55:26;10.53;;;9.93;;
8584;SDS011;7180;52.742;11.420;2023-01-09T15:01:01;11.77;;;10.97;;
8584;SDS011;7180;52.742;11.420;2023-01-09T15:03:52;13.50;;;12.50;;
8584;SDS011;7180;52.742;11.420;2023-01-09T15:06:23;12.53;;;11.63;;
8584;SDS011;7180;52.742;11.420;2023-01-09T15:08:55;10.83;;;10.20;;
8584;SDS011;7180;52.742;11.420;2023-01-09T15:11:25;11.03;;;10.33;;
8584;SDS011;7180;52.742;11.420;2023-01-09T15:13:52;10.90;;;10.20;;
8584;SDS011;7180;52.742;11.420;2023-01-09T15:16:21;10.67;;;9.97;;
8584;SDS011;7180;52.742;11.420;2023-01-09T15:18:49;10.57;;;9.97;;
8584;SDS011;7180;52.742;11.420;2023-01-09T15:21:18;11.20;;;10.47;;
8584;SDS011;7180;52.742;11.420;2023-01-09T15:23:46;10.87;;;9.97;;
8584;SDS011;7180;52.742;11.420;2023-01-09T15:26:13;10.37;;;9.67;;
8584;SDS011;7180;52.742;11.420;2023-01-09T15:28:50;11.00;;;10.20;;
8584;SDS011;7180;52.742;11.420;2023-01-09T15:31:16;11.10;;;10.30;;
8584;SDS011;7180;52.742;11.420;2023-01-09T15:33:46;10.20;;;9.47;;
8584;SDS011;7180;52.742;11.420;2023-01-09T15:36:14;10.73;;;10.10;;
8584;SDS011;7180;52.742;11.420;2023-01-09T15:38:48;10.97;;;10.17;;
8584;SDS011;7180;52.742;11.420;2023-01-09T15:41:15;10.50;;;9.90;;
8584;SDS011;7180;52.742;11.420;2023-01-09T15:44:03;10.20;;;9.60;;
8584;SDS011;7180;52.742;11.420;2023-01-09T15:46:34;10.50;;;10.00;;
8584;SDS011;7180;52.742;11.420;2023-01-09T15:49:01;10.83;;;10.23;;
8584;SDS011;7180;52.742;11.420;2023-01-09T15:51:26;10.07;;;9.37;;
8584;SDS011;7180;52.742;11.420;2023-01-09T15:53:52;10.20;;;9.60;;
8584;SDS011;7180;52.742;11.420;2023-01-09T15:56:27;9.83;;;9.33;;
8584;SDS011;7180;52.742;11.420;2023-01-09T15:58:57;10.37;;;9.80;;
8584;SDS011;7180;52.742;11.420;2023-01-09T16:01:33;10.47;;;9.87;;
8584;SDS011;7180;52.742;11.420;2023-01-09T16:06:27;10.03;;;9.37;;
8584;SDS011;7180;52.742;11.420;2023-01-09T16:08:54;11.10;;;10.47;;
8584;SDS011;7180;52.742;11.420;2023-01-09T16:11:40;10.53;;;9.87;;
8584;SDS011;7180;52.742;11.420;2023-01-09T16:16:38;11.07;;;10.47;;
8584;SDS011;7180;52.742;11.420;2023-01-09T16:19:04;11.00;;;10.40;;
8584;SDS011;7180;52.742;11.420;2023-01-09T16:21:55;11.63;;;10.93;;
8584;SDS011;7180;52.742;11.420;2023-01-09T16:24:26;9.93;;;9.43;;
8584;SDS011;7180;52.742;11.420;2023-01-09T16:27:11;10.50;;;9.90;;
8584;SDS011;7180;52.742;11.420;2023-01-09T16:29:44;10.10;;;9.60;;
8584;SDS011;7180;52.742;11.420;2023-01-09T16:32:18;10.43;;;9.87;;
8584;SDS011;7180;52.742;11.420;2023-01-09T16:34:53;10.60;;;10.07;;
8584;SDS011;7180;52.742;11.420;2023-01-09T16:37:20;10.73;;;10.13;;
8584;SDS011;7180;52.742;11.420;2023-01-09T16:42:53;10.33;;;9.73;;
8584;SDS011;7180;52.742;11.420;2023-01-09T16:48:12;10.27;;;9.57;;
8584;SDS011;7180;52.742;11.420;2023-01-09T16:50:39;10.43;;;9.80;;
8584;SDS011;7180;52.742;11.420;2023-01-09T16:53:09;10.40;;;9.80;;
8584;SDS011;7180;52.742;11.420;2023-01-09T16:55:39;9.60;;;9.10;;
8584;SDS011;7180;52.742;11.420;2023-01-09T16:58:04;9.37;;;8.87;;
8584;SDS011;7180;52.742;11.420;2023-01-09T17:00:29;9.57;;;9.07;;
8584;SDS011;7180;52.742;11.420;2023-01-09T17:02:55;9.30;;;8.80;;
8584;SDS011;7180;52.742;11.420;2023-01-09T17:05:22;9.87;;;9.37;;
8584;SDS011;7180;52.742;11.420;2023-01-09T17:07:47;10.00;;;9.50;;
8584;SDS011;7180;52.742;11.420;2023-01-09T17:10:15;9.73;;;9.17;;
8584;SDS011;7180;52.742;11.420;2023-01-09T17:12:43;10.10;;;9.50;;
8584;SDS011;7180;52.742;11.420;2023-01-09T17:15:09;10.00;;;9.50;;
8584;SDS011;7180;52.742;11.420;2023-01-09T17:17:34;9.83;;;9.37;;
8584;SDS011;7180;52.742;11.420;2023-01-09T17:19:59;9.90;;;9.40;;
8584;SDS011;7180;52.742;11.420;2023-01-09T17:22:25;9.57;;;9.07;;
8584;SDS011;7180;52.742;11.420;2023-01-09T17:24:50;10.30;;;9.63;;
8584;SDS011;7180;52.742;11.420;2023-01-09T17:27:34;10.80;;;10.20;;